Time;durP1;ratioP1;P1;durP2;ratioP2;P2;SDS_P1;SDS_P2;PMS_P1;PMS_P2;Temp;Humidity;BMP_temperature;BMP_pressure;BME280_temperature;BME280_humidity;BME280_pressure;Samples;Min_cycle;Max_cycle;Signal;HPM_P1;HPM_P2
2023/11/30 00:00:13;;;;;;;16.17;9.90;;;2.70;99.90;;;;;;5076283;28;48277;-79
2023/11/30 00:02:40;;;;;;;13.63;9.13;;;2.70;99.90;;;;;;5077932;28;37898;-80
2023/11/30 00:05:08;;;;;;;13.83;8.40;;;2.60;99.90;;;;;;5103250;28;37865;-80
2023/11/30 00:07:38;;;;;;;15.70;10.60;;;2.50;99.90;;;;;;5100507;28;41471;-79
2023/11/30 00:10:06;;;;;;;12.03;8.37;;;2.40;99.90;;;;;;5072238;28;39426;-79
2023/11/30 00:12:33;;;;;;;18.83;11.37;;;2.30;99.90;;;;;;5095172;28;38076;-80
2023/11/30 00:15:04;;;;;;;12.03;8.80;;;2.20;99.90;;;;;;5066454;28;37439;-79
2023/11/30 00:17:33;;;;;;;;;;;2.20;99.90;;;;;;5098607;28;48594;-80
2023/11/30 00:19:59;;;;;;;16.73;10.87;;;2.10;99.90;;;;;;5110092;28;39804;-80
2023/11/30 00:22:26;;;;;;;13.70;9.00;;;2.10;99.90;;;;;;5084219;28;38040;-80
2023/11/30 00:25:02;;;;;;;17.27;10.90;;;2.10;99.90;;;;;;5101613;28;37870;-80
2023/11/30 00:27:32;;;;;;;16.73;10.57;;;2.00;99.90;;;;;;5082981;28;47272;-80
2023/11/30 00:29:59;;;;;;;15.33;10.60;;;2.00;99.90;;;;;;5110489;28;38733;-80
2023/11/30 00:32:26;;;;;;;14.17;9.73;;;1.90;99.90;;;;;;5059027;28;37737;-80
2023/11/30 00:35:09;;;;;;;12.63;8.90;;;1.90;99.90;;;;;;5085552;28;36752;-80
2023/11/30 00:37:35;;;;;;;;;;;1.90;99.90;;;;;;5088569;28;47178;-80
2023/11/30 00:40:05;;;;;;;15.53;9.70;;;1.90;99.90;;;;;;5091460;28;38860;-80
2023/11/30 00:42:32;;;;;;;21.20;10.80;;;1.90;99.90;;;;;;5106963;28;47542;-80
2023/11/30 00:45:01;;;;;;;14.93;10.40;;;1.80;99.90;;;;;;5088130;28;37605;-80
2023/11/30 00:47:30;;;;;;;19.53;10.10;;;1.70;99.90;;;;;;5088134;28;38152;-80
2023/11/30 00:49:57;;;;;;;15.07;10.13;;;1.70;99.90;;;;;;5077370;28;37441;-79
2023/11/30 00:52:26;;;;;;;21.57;10.40;;;1.70;99.90;;;;;;5080974;28;37656;-80
2023/11/30 00:54:52;;;;;;;13.33;9.97;;;1.60;99.90;;;;;;5096398;28;39081;-79
2023/11/30 00:57:28;;;;;;;16.30;8.37;;;1.60;99.90;;;;;;5109541;28;38444;-80
2023/11/30 01:00:00;;;;;;;13.43;9.83;;;1.50;99.90;;;;;;5084083;28;38513;-80
2023/11/30 01:02:27;;;;;;;20.33;10.80;;;1.40;99.90;;;;;;5088850;28;37737;-81
2023/11/30 01:04:55;;;;;;;17.33;11.03;;;1.40;99.90;;;;;;5083430;28;36174;-80
2023/11/30 01:07:21;;;;;;;15.53;9.83;;;1.40;99.90;;;;;;5090863;28;40287;-79
2023/11/30 01:09:48;;;;;;;12.23;8.37;;;1.30;99.90;;;;;;5091731;28;39273;-79
2023/11/30 01:12:16;;;;;;;16.63;10.93;;;1.30;99.90;;;;;;5088739;28;39523;-80
2023/11/30 01:14:45;;;;;;;18.83;10.37;;;1.30;99.90;;;;;;5094260;28;38151;-80
2023/11/30 01:17:14;;;;;;;12.80;8.70;;;1.30;99.90;;;;;;5085648;28;36408;-79
2023/11/30 01:19:47;;;;;;;11.97;8.20;;;1.30;99.90;;;;;;5089540;28;37749;-79
2023/11/30 01:22:16;;;;;;;;;;;1.30;99.90;;;;;;5083945;28;37392;-80
2023/11/30 01:24:42;;;;;;;15.80;9.30;;;1.30;99.90;;;;;;5086672;28;38616;-79
2023/11/30 01:27:17;;;;;;;14.27;9.67;;;1.30;99.90;;;;;;5077544;28;38958;-80
2023/11/30 01:29:44;;;;;;;17.17;9.43;;;1.30;99.90;;;;;;5095422;28;39021;-81
2023/11/30 01:32:11;;;;;;;15.80;10.07;;;1.30;99.90;;;;;;5076581;28;39159;-79
2023/11/30 01:34:39;;;;;;;12.07;7.77;;;1.30;99.90;;;;;;5086185;28;36027;-79
2023/11/30 01:37:08;;;;;;;9.17;6.97;;;1.20;99.90;;;;;;5096901;28;39824;-81
2023/11/30 01:39:35;;;;;;;14.03;8.00;;;1.10;99.90;;;;;;5072314;28;37883;-80
2023/11/30 01:42:01;;;;;;;14.00;8.87;;;1.00;99.90;;;;;;5094132;28;39086;-80
2023/11/30 01:44:28;;;;;;;14.90;9.73;;;1.00;99.90;;;;;;5079573;28;48305;-80
2023/11/30 01:46:55;;;;;;;18.57;9.50;;;1.00;99.90;;;;;;5079139;28;38074;-80
2023/11/30 01:49:21;;;;;;;12.57;8.07;;;1.00;99.90;;;;;;5076150;28;37247;-80
2023/11/30 01:51:49;;;;;;;16.27;10.33;;;1.00;99.90;;;;;;5095041;28;35715;-79
2023/11/30 01:54:16;;;;;;;18.13;11.40;;;1.00;99.90;;;;;;5067198;28;36717;-80
2023/11/30 01:56:43;;;;;;;17.40;10.20;;;1.10;99.90;;;;;;5075799;27;40167;-81
2023/11/30 01:59:13;;;;;;;12.43;8.33;;;1.00;99.90;;;;;;5078374;28;38556;-80
2023/11/30 02:04:15;;;;;;;18.87;10.67;;;1.00;99.90;;;;;;4229785;22;20064;-78
2023/11/30 02:06:46;;;;;;;14.73;10.67;;;1.00;99.90;;;;;;5092969;28;37578;-80
2023/11/30 02:09:15;;;;;;;17.17;10.60;;;1.00;99.90;;;;;;5111662;28;39933;-80
2023/11/30 02:11:41;;;;;;;15.80;9.97;;;0.90;99.90;;;;;;5117807;28;39571;-80
2023/11/30 02:14:13;;;;;;;16.07;10.67;;;0.90;99.90;;;;;;5115707;28;38304;-80
2023/11/30 02:16:39;;;;;;;16.45;10.95;;;0.90;99.90;;;;;;5112804;28;40151;-79
2023/11/30 02:19:05;;;;;;;17.40;10.23;;;0.90;99.90;;;;;;5088075;28;37862;-79
2023/11/30 02:21:51;;;;;;;23.70;13.03;;;0.90;99.90;;;;;;5104558;28;37198;-80
2023/11/30 02:24:17;;;;;;;14.97;9.73;;;0.90;99.90;;;;;;5081643;28;37303;-79
2023/11/30 02:26:46;;;;;;;16.47;10.50;;;0.80;99.90;;;;;;5103300;28;39237;-79
2023/11/30 02:29:15;;;;;;;12.90;8.63;;;0.80;99.90;;;;;;5083668;28;37927;-80
2023/11/30 02:31:56;;;;;;;17.47;10.80;;;0.90;99.90;;;;;;5086865;28;38318;-78
2023/11/30 02:34:36;;;;;;;16.20;10.33;;;0.80;99.90;;;;;;5097620;28;38109;-80
2023/11/30 02:37:05;;;;;;;11.90;8.20;;;0.80;99.90;;;;;;5071120;28;39140;-80
2023/11/30 02:39:32;;;;;;;13.77;8.73;;;0.70;99.90;;;;;;5046907;28;47806;-78
2023/11/30 02:42:01;;;;;;;17.80;10.90;;;0.70;99.90;;;;;;5084955;28;38736;-80
2023/11/30 02:44:35;;;;;;;15.33;9.10;;;0.60;99.90;;;;;;5073140;27;50301;-80
2023/11/30 02:47:05;;;;;;;12.80;7.37;;;0.50;99.90;;;;;;5046789;28;39488;-79
2023/11/30 02:49:35;;;;;;;19.37;11.80;;;0.50;99.90;;;;;;5060546;28;40078;-78
2023/11/30 02:52:05;;;;;;;13.77;8.83;;;0.50;99.90;;;;;;5031969;28;38502;-78
2023/11/30 02:54:51;;;;;;;14.67;8.80;;;0.50;99.90;;;;;;5072464;28;48804;-80
2023/11/30 02:57:27;;;;;;;17.47;9.83;;;0.50;99.90;;;;;;5092489;28;39104;-78
2023/11/30 02:59:54;;;;;;;14.82;9.90;;;0.50;99.90;;;;;;5088499;27;39005;-79
2023/11/30 03:02:22;;;;;;;15.00;9.80;;;0.50;99.90;;;;;;5083043;28;39463;-79
2023/11/30 03:04:49;;;;;;;18.77;10.97;;;0.50;99.90;;;;;;5084054;28;37977;-78
2023/11/30 03:07:30;;;;;;;13.73;9.57;;;0.60;99.90;;;;;;5061310;28;39458;-79
2023/11/30 03:20:46;;;;;;;15.23;9.97;;;0.50;99.90;;;;;;5089677;22;20053;-79
2023/11/30 03:23:18;;;;;;;18.63;11.97;;;0.50;99.90;;;;;;5066523;28;38285;-79
2023/11/30 03:26:04;;;;;;;16.38;10.63;;;0.60;99.90;;;;;;5058241;28;37421;-79
2023/11/30 03:28:47;;;;;;;16.03;10.20;;;0.70;99.90;;;;;;5055586;28;48773;-81
2023/11/30 03:31:26;;;;;;;17.33;11.70;;;0.70;99.90;;;;;;5067941;28;38904;-79
2023/11/30 03:34:03;;;;;;;25.27;12.93;;;0.70;99.90;;;;;;5060822;28;37030;-81
2023/11/30 03:36:39;;;;;;;23.20;10.03;;;0.70;99.90;;;;;;5039891;28;48544;-81
2023/11/30 03:39:21;;;;;;;16.97;9.50;;;0.70;99.90;;;;;;5054416;28;39155;-79
2023/11/30 03:42:04;;;;;;;16.65;11.52;;;0.80;99.90;;;;;;5054492;28;38660;-79
2023/11/30 03:44:35;;;;;;;15.73;10.07;;;0.80;99.90;;;;;;5059161;28;48490;-79
2023/11/30 03:47:16;;;;;;;19.47;12.27;;;0.90;99.90;;;;;;5041641;28;37345;-79
2023/11/30 03:49:46;;;;;;;18.73;12.73;;;0.90;99.90;;;;;;5057726;28;37800;-80
2023/11/30 03:52:18;;;;;;;21.93;13.30;;;0.90;99.90;;;;;;5056470;28;38197;-79
2023/11/30 03:55:00;;;;;;;17.83;11.55;;;1.00;99.90;;;;;;5043059;28;38161;-79
2023/11/30 03:57:26;;;;;;;16.23;10.07;;;1.10;99.90;;;;;;5057120;28;37427;-80
2023/11/30 03:59:53;;;;;;;18.30;11.70;;;1.10;99.90;;;;;;5072701;28;39226;-79
2023/11/30 04:02:19;;;;;;;19.37;12.27;;;1.10;99.90;;;;;;5071259;28;39713;-78
2023/11/30 04:04:51;;;;;;;14.77;9.83;;;1.00;99.90;;;;;;5055277;28;39374;-79
2023/11/30 04:07:17;;;;;;;20.00;12.13;;;1.00;99.90;;;;;;5061892;28;38331;-79
2023/11/30 04:09:50;;;;;;;19.70;12.27;;;1.00;99.90;;;;;;5076139;28;40126;-79
2023/11/30 04:12:27;;;;;;;17.70;12.37;;;1.00;99.90;;;;;;5062387;28;38533;-79
2023/11/30 04:17:30;;;;;;;14.30;9.70;;;1.10;99.90;;;;;;5713430;22;20049;-80
2023/11/30 04:20:00;;;;;;;19.87;12.20;;;1.10;99.90;;;;;;5057227;28;38942;-80
2023/11/30 04:22:49;;;;;;;21.27;12.70;;;1.00;99.90;;;;;;5060711;28;38710;-80
2023/11/30 04:25:22;;;;;;;21.97;13.23;;;1.00;99.90;;;;;;5056298;28;38305;-81
2023/11/30 04:27:48;;;;;;;17.83;10.43;;;1.00;99.90;;;;;;5067972;28;36546;-81
2023/11/30 04:30:22;;;;;;;14.10;9.60;;;1.00;99.90;;;;;;5621284;22;38166;-79
2023/11/30 04:33:46;;;;;;;;;;;;;;;;;;;;;
2023/11/30 04:36:20;;;;;;;17.97;11.93;;;0.90;99.90;;;;;;5048170;28;50164;-80
2023/11/30 04:38:55;;;;;;;22.87;13.13;;;1.00;99.90;;;;;;5057019;28;37070;-80
2023/11/30 04:41:22;;;;;;;28.07;14.70;;;0.90;99.90;;;;;;5056784;28;38661;-81
2023/11/30 04:43:52;;;;;;;27.07;16.43;;;0.90;99.90;;;;;;5060587;28;39856;-80
2023/11/30 04:46:21;;;;;;;25.93;14.80;;;0.90;99.90;;;;;;5076451;28;39671;-79
2023/11/30 04:48:50;;;;;;;30.67;15.17;;;0.90;99.90;;;;;;5081019;28;38927;-79
2023/11/30 04:51:25;;;;;;;28.47;15.93;;;0.90;99.90;;;;;;5062731;28;38745;-81
2023/11/30 04:53:55;;;;;;;55.57;20.73;;;0.90;99.90;;;;;;5147424;22;38996;-80
2023/11/30 04:56:23;;;;;;;36.87;18.80;;;1.00;99.90;;;;;;5108991;27;38393;-80
2023/11/30 04:59:08;;;;;;;29.93;17.20;;;1.00;99.90;;;;;;5100754;28;37546;-82
2023/11/30 05:01:39;;;;;;;43.53;19.53;;;1.00;99.90;;;;;;5095562;28;48322;-83
2023/11/30 05:04:05;;;;;;;41.67;19.13;;;1.00;99.90;;;;;;5095576;28;38140;-80
2023/11/30 05:06:40;;;;;;;27.30;16.53;;;0.90;99.90;;;;;;5089636;27;37944;-81
2023/11/30 05:09:07;;;;;;;23.90;13.17;;;0.90;99.90;;;;;;5093572;28;37638;-80
2023/11/30 05:11:39;;;;;;;23.77;13.50;;;0.80;99.90;;;;;;5099068;27;40402;-81
2023/11/30 05:17:03;;;;;;;19.63;13.50;;;0.70;99.90;;;;;;5483582;22;20039;-80
2023/11/30 05:19:57;;;;;;;26.60;16.23;;;0.60;99.90;;;;;;5079549;28;48375;-80
2023/11/30 05:22:23;;;;;;;30.30;18.77;;;0.50;99.90;;;;;;5070983;28;39110;-80
2023/11/30 05:24:52;;;;;;;22.53;14.23;;;0.60;99.90;;;;;;5086735;28;37673;-80
2023/11/30 05:27:18;;;;;;;24.23;14.83;;;0.60;99.90;;;;;;5085691;28;39788;-81
2023/11/30 05:29:47;;;;;;;27.77;16.43;;;0.70;99.90;;;;;;5206632;22;37493;-80
2023/11/30 05:32:17;;;;;;;28.63;17.70;;;0.70;99.90;;;;;;5077423;28;40099;-79
2023/11/30 05:34:49;;;;;;;32.33;19.03;;;0.70;99.90;;;;;;5077466;28;38380;-79
2023/11/30 05:37:22;;;;;;;;;;;0.70;99.90;;;;;;5063399;28;38088;-80
2023/11/30 05:39:48;;;;;;;21.70;15.32;;;0.70;99.90;;;;;;5072846;28;39068;-80
2023/11/30 05:42:33;;;;;;;28.13;17.77;;;0.70;99.90;;;;;;5058979;28;38986;-80
2023/11/30 05:45:19;;;;;;;22.93;14.93;;;0.80;99.90;;;;;;5061562;28;40003;-80
2023/11/30 05:47:45;;;;;;;22.97;14.90;;;0.80;99.90;;;;;;5061406;28;48024;-81
2023/11/30 05:50:16;;;;;;;31.37;19.13;;;0.90;99.90;;;;;;5059530;28;36896;-80
2023/11/30 05:52:45;;;;;;;28.77;17.20;;;0.90;99.90;;;;;;5074709;28;40105;-81
2023/11/30 05:55:12;;;;;;;33.40;19.07;;;1.00;99.90;;;;;;5063081;28;39710;-79
2023/11/30 05:57:40;;;;;;;28.33;20.00;;;1.00;99.90;;;;;;5062046;28;39649;-80
2023/11/30 06:00:10;;;;;;;28.03;19.17;;;1.00;99.90;;;;;;5053890;28;36259;-79
2023/11/30 06:02:37;;;;;;;33.63;22.27;;;1.00;99.90;;;;;;5077265;28;39732;-79
2023/11/30 06:05:04;;;;;;;35.43;22.90;;;1.00;99.90;;;;;;5048734;28;37319;-81
2023/11/30 06:07:44;;;;;;;26.13;17.43;;;1.10;99.90;;;;;;5071504;28;47215;-80
2023/11/30 06:10:11;;;;;;;33.47;20.80;;;1.10;99.90;;;;;;5068286;28;38868;-80
2023/11/30 06:12:41;;;;;;;31.77;21.03;;;1.20;99.90;;;;;;5048440;28;38784;-77
2023/11/30 06:15:11;;;;;;;31.57;20.10;;;1.20;99.90;;;;;;5029407;28;40454;-78
2023/11/30 06:17:37;;;;;;;35.30;21.93;;;1.20;99.90;;;;;;5048194;28;37978;-79
2023/11/30 06:20:14;;;;;;;25.17;17.60;;;1.30;99.90;;;;;;5296745;22;36038;31
2023/11/30 06:22:48;;;;;;;36.47;21.43;;;1.30;99.90;;;;;;5053059;28;41397;-81
2023/11/30 06:25:24;;;;;;;35.83;20.47;;;1.30;99.90;;;;;;5038542;28;38789;-80
2023/11/30 06:27:50;;;;;;;31.47;19.90;;;1.30;99.90;;;;;;5058335;28;37954;-81
2023/11/30 06:30:16;;;;;;;39.03;22.97;;;1.40;99.90;;;;;;5054927;28;36300;-81
2023/11/30 06:32:52;;;;;;;28.43;19.83;;;1.40;99.90;;;;;;5054602;28;38674;-80
2023/11/30 06:35:20;;;;;;;38.53;22.90;;;1.40;99.90;;;;;;5033383;28;37076;-80
2023/11/30 06:37:46;;;;;;;34.20;20.63;;;1.50;99.90;;;;;;5042355;28;38601;-81
2023/11/30 06:40:43;;;;;;;28.43;18.17;;;1.50;99.90;;;;;;5037380;28;37501;-81
2023/11/30 06:43:18;;;;;;;39.53;23.90;;;1.50;99.90;;;;;;5062721;28;38544;-80
2023/11/30 06:45:44;;;;;;;38.20;20.03;;;1.50;99.90;;;;;;5112317;22;38351;-81
2023/11/30 06:48:17;;;;;;;32.40;20.67;;;1.50;99.90;;;;;;5091150;28;37654;-80
2023/11/30 06:58:37;;;;;;;44.47;27.40;;;1.50;99.90;;;;;;5293993;22;20199;-80
2023/11/30 07:01:12;;;;;;;38.65;23.17;;;1.50;99.90;;;;;;5066166;28;39109;-80
2023/11/30 07:04:02;;;;;;;32.83;20.33;;;1.60;99.90;;;;;;5099507;28;39504;-80
2023/11/30 07:06:31;;;;;;;40.47;24.13;;;1.50;99.90;;;;;;5116388;27;48426;-80
2023/11/30 07:09:12;;;;;;;36.40;22.87;;;1.50;99.90;;;;;;5084521;28;38207;-80
2023/11/30 07:11:44;;;;;;;40.17;23.77;;;1.50;99.90;;;;;;5087072;28;48550;-82
2023/11/30 07:14:13;;;;;;;41.05;23.73;;;1.60;99.90;;;;;;5211021;22;40272;-80
2023/11/30 07:17:18;;;;;;;55.33;28.33;;;1.60;99.90;;;;;;5106277;27;38169;-80
2023/11/30 07:20:12;;;;;;;55.53;29.53;;;1.50;99.90;;;;;;5093377;27;48717;-80
2023/11/30 07:30:30;;;;;;;48.83;29.93;;;1.40;99.90;;;;;;5371663;22;20059;-81
2023/11/30 07:32:56;;;;;;;42.90;27.23;;;1.40;99.90;;;;;;5068268;28;37066;-80
2023/11/30 07:37:59;;;;;;;59.57;30.70;;;1.40;99.90;;;;;;5941800;22;20041;-80
2023/11/30 07:46:55;;;;;;;79.27;36.60;;;1.40;99.90;;;;;;5613540;22;20026;-80
2023/11/30 07:49:47;;;;;;;55.20;32.27;;;1.40;99.90;;;;;;5073193;28;39010;-80
2023/11/30 07:52:56;;;;;;;72.90;36.47;;;1.40;99.90;;;;;;5048109;28;38592;-81
2023/11/30 07:55:47;;;;;;;79.70;37.57;;;1.30;99.90;;;;;;5028876;28;38797;-80
2023/11/30 08:01:00;;;;;;;58.80;33.93;;;1.40;99.90;;;;;;5074495;23;20129;-81
2023/11/30 08:08:41;;;;;;;67.37;34.47;;;1.40;99.90;;;;;;5868109;22;20037;-81
2023/11/30 08:27:27;;;;;;;130.10;51.10;;;1.60;99.90;;;;;;5373950;22;20045;-81
2023/11/30 08:29:56;;;;;;;78.57;41.47;;;1.60;99.90;;;;;;5066673;28;48400;-81
2023/11/30 08:42:54;;;;;;;81.87;44.03;;;1.60;99.90;;;;;;5601490;22;20068;-81
2023/11/30 08:45:41;;;;;;;172.83;60.87;;;1.60;99.90;;;;;;5070354;28;37577;-80
2023/11/30 08:56:00;;;;;;;160.03;60.70;;;1.80;99.90;;;;;;5911042;22;20094;-81
2023/11/30 09:14:10;;;;;;;81.37;46.60;;;2.00;99.90;;;;;;6133143;22;20167;-80
2023/11/30 09:19:20;;;;;;;79.30;47.13;;;2.10;99.90;;;;;;5456150;22;20040;-81
2023/11/30 09:21:52;;;;;;;94.30;48.87;;;2.20;99.90;;;;;;5048407;28;39493;-81
2023/11/30 09:24:21;;;;;;;93.80;47.97;;;2.20;99.90;;;;;;5047044;28;38678;-79
2023/11/30 09:26:54;;;;;;;91.40;51.20;;;2.20;99.90;;;;;;5053256;28;41067;-80
2023/11/30 09:29:25;;;;;;;89.60;51.93;;;2.20;99.90;;;;;;5054691;28;37941;-81
2023/11/30 09:31:51;;;;;;;84.93;46.03;;;2.20;99.90;;;;;;5039807;28;39074;-79
2023/11/30 09:34:29;;;;;;;108.80;55.80;;;2.10;99.90;;;;;;5039559;28;37651;-81
2023/11/30 09:36:55;;;;;;;113.70;57.33;;;2.10;99.90;;;;;;5056870;28;38772;-79
2023/11/30 09:39:27;;;;;;;116.07;56.80;;;2.20;99.90;;;;;;5071775;28;37893;-81
2023/11/30 09:44:29;;;;;;;97.67;52.03;;;2.30;99.90;;;;;;5731101;23;20042;-81
2023/11/30 09:47:02;;;;;;;88.77;50.07;;;2.30;99.90;;;;;;5075703;28;38594;-80
2023/11/30 09:49:38;;;;;;;110.57;51.83;;;2.40;99.90;;;;;;5097822;28;50325;-82
2023/11/30 09:52:05;;;;;;;85.40;46.00;;;2.40;99.90;;;;;;5079286;28;39295;-81
2023/11/30 09:54:34;;;;;;;98.87;50.37;;;2.40;99.90;;;;;;5094246;28;39066;-81
2023/11/30 09:57:00;;;;;;;107.43;53.00;;;2.40;99.90;;;;;;5078917;28;38336;-80
2023/11/30 09:59:32;;;;;;;93.13;50.13;;;2.40;99.90;;;;;;5076281;28;37498;-82
2023/11/30 10:02:02;;;;;;;84.20;46.78;;;2.40;99.90;;;;;;5376718;22;38851;-81
2023/11/30 10:04:41;;;;;;;79.03;44.40;;;2.40;99.90;;;;;;5094834;28;50118;-79
2023/11/30 10:07:08;;;;;;;75.00;43.57;;;2.40;99.90;;;;;;5094080;28;39286;-79
2023/11/30 10:09:37;;;;;;;73.97;43.37;;;2.40;99.90;;;;;;5089992;28;37483;-79
2023/11/30 10:18:24;;;;;;;84.57;45.00;;;2.60;99.90;;;;;;5689152;22;20056;-81
2023/11/30 10:20:50;;;;;;;84.70;45.07;;;2.70;99.90;;;;;;5334613;23;39050;-82
2023/11/30 10:28:48;;;;;;;98.90;51.53;;;2.80;99.90;;;;;;5067180;22;20206;-81
2023/11/30 10:31:19;;;;;;;110.63;58.47;;;2.90;99.90;;;;;;5051472;28;37874;-81
2023/11/30 10:34:04;;;;;;;104.33;52.70;;;3.00;99.90;;;;;;5070951;28;40140;-80
2023/11/30 10:37:04;;;;;;;96.90;52.03;;;2.90;99.90;;;;;;5070200;28;49864;-80
2023/11/30 10:39:46;;;;;;;115.63;57.33;;;3.00;99.90;;;;;;5026319;28;47853;-81
2023/11/30 10:42:13;;;;;;;109.60;56.77;;;3.00;99.90;;;;;;5047248;28;37365;-80
2023/11/30 11:16:41;;;;;;;77.33;46.23;;;3.30;99.90;;;;;;5165156;22;20046;-81
2023/11/30 11:25:41;;;;;;;72.93;42.50;;;3.40;99.90;;;;;;5562539;23;20042;-82
2023/11/30 11:28:12;;;;;;;80.53;42.80;;;3.30;99.90;;;;;;4960571;28;38839;-81
2023/11/30 11:44:03;;;;;;;59.60;37.17;;;3.20;99.90;;;;;;5248721;23;20032;-81
2023/11/30 11:46:53;;;;;;;64.13;38.23;;;3.10;99.90;;;;;;4977374;28;50391;-81
2023/11/30 11:49:28;;;;;;;71.67;41.07;;;3.30;99.90;;;;;;4960876;28;38828;-81
2023/11/30 11:51:55;;;;;;;57.70;36.33;;;3.40;99.90;;;;;;4988242;28;38258;-81
2023/11/30 11:57:47;;;;;;;58.00;35.60;;;3.40;99.90;;;;;;4980286;28;50826;-82
2023/11/30 12:00:21;;;;;;;50.77;34.33;;;3.40;99.90;;;;;;4976301;28;38957;-81
2023/11/30 12:02:56;;;;;;;50.50;33.70;;;3.40;99.90;;;;;;4985633;28;39539;-81
2023/11/30 12:06:03;;;;;;;55.03;33.50;;;3.40;99.90;;;;;;4988574;28;37296;-81
2023/11/30 12:11:38;;;;;;;57.13;35.40;;;3.40;99.90;;;;;;5043187;23;20039;-81
2023/11/30 12:14:37;;;;;;;45.47;30.07;;;3.50;99.90;;;;;;4966354;28;38511;-80
2023/11/30 12:17:03;;;;;;;46.83;30.63;;;3.40;99.90;;;;;;4987602;28;49040;-82
2023/11/30 12:19:30;;;;;;;50.00;30.60;;;3.50;99.90;;;;;;4996020;28;37581;-83
2023/11/30 12:25:38;;;;;;;48.83;31.10;;;3.70;99.90;;;;;;4977731;28;50701;-81
2023/11/30 12:28:29;;;;;;;42.93;28.60;;;3.70;99.90;;;;;;4979457;28;38619;-81
2023/11/30 12:30:55;;;;;;;47.17;31.93;;;3.80;99.90;;;;;;4974245;28;37831;-82
2023/11/30 12:33:25;;;;;;;47.30;32.53;;;4.10;99.90;;;;;;4962832;28;37780;-82
2023/11/30 12:35:54;;;;;;;41.20;27.73;;;4.10;99.90;;;;;;4963254;28;38328;-81
2023/11/30 12:38:30;;;;;;;37.20;26.60;;;4.00;99.90;;;;;;4953100;28;37972;-82
2023/11/30 12:40:57;;;;;;;42.53;28.67;;;3.80;99.90;;;;;;5001530;28;38832;-82
2023/11/30 12:43:26;;;;;;;40.50;27.27;;;3.70;99.90;;;;;;4960934;28;39040;-82
2023/11/30 12:46:21;;;;;;;39.60;27.20;;;3.70;99.90;;;;;;4965636;28;37514;-82
2023/11/30 12:48:54;;;;;;;38.43;26.83;;;3.80;99.90;;;;;;4979597;28;47791;-82
2023/11/30 12:51:23;;;;;;;47.45;29.55;;;3.70;99.90;;;;;;4977452;28;37194;-81
2023/11/30 12:53:53;;;;;;;41.77;28.90;;;3.70;99.90;;;;;;4958433;28;39217;-81
2023/11/30 12:57:01;;;;;;;40.20;27.70;;;3.80;99.90;;;;;;4970852;28;38816;-81
2023/11/30 12:59:28;;;;;;;41.93;26.47;;;3.70;99.90;;;;;;5326066;23;47918;-80
2023/11/30 13:01:56;;;;;;;41.87;27.90;;;3.60;99.90;;;;;;4961103;28;36225;-81
2023/11/30 13:04:23;;;;;;;37.63;25.17;;;3.60;99.90;;;;;;4955355;28;40498;-80
2023/11/30 13:06:50;;;;;;;41.07;27.03;;;3.50;99.90;;;;;;4944932;28;36033;-78
2023/11/30 13:09:19;;;;;;;43.20;27.87;;;3.50;99.90;;;;;;4956083;28;38773;-79
2023/11/30 13:11:52;;;;;;;40.87;26.97;;;3.40;99.90;;;;;;4939910;28;37782;-79
2023/11/30 13:14:21;;;;;;;45.80;28.85;;;3.40;99.90;;;;;;4942778;28;38581;-80
2023/11/30 13:16:48;;;;;;;46.53;30.73;;;3.30;99.90;;;;;;4953836;28;38646;-78
2023/11/30 13:19:14;;;;;;;45.37;27.97;;;3.30;99.90;;;;;;4935860;28;38811;-79
2023/11/30 13:21:40;;;;;;;40.30;27.90;;;3.30;99.90;;;;;;4957963;28;38511;-80
2023/11/30 13:24:10;;;;;;;47.57;29.93;;;3.20;99.90;;;;;;4957502;28;39166;-79
2023/11/30 13:26:36;;;;;;;45.73;29.27;;;3.20;99.90;;;;;;4942285;28;38903;-79
2023/11/30 13:29:03;;;;;;;45.17;30.07;;;3.30;99.90;;;;;;4962757;28;37942;-78
2023/11/30 13:31:32;;;;;;;48.33;29.80;;;3.30;99.90;;;;;;4939076;28;37530;-80
2023/11/30 13:33:59;;;;;;;48.67;30.57;;;3.40;99.90;;;;;;4954705;28;38947;-81
2023/11/30 13:36:26;;;;;;;49.33;29.90;;;3.30;99.90;;;;;;4953484;29;38282;-82
2023/11/30 13:38:52;;;;;;;47.13;30.17;;;3.40;99.90;;;;;;4956029;28;37891;-81
2023/11/30 13:49:13;;;;;;;50.83;32.47;;;3.60;99.90;;;;;;5705618;23;19915;-81
2023/11/30 13:51:43;;;;;;;54.10;33.73;;;3.60;99.90;;;;;;4987423;28;38092;-81
2023/11/30 13:54:10;;;;;;;48.93;32.00;;;3.70;99.90;;;;;;4961748;28;38460;-81
2023/11/30 13:56:39;;;;;;;45.80;31.73;;;3.90;99.90;;;;;;4966849;28;37588;-80
2023/11/30 13:59:22;;;;;;;45.37;30.03;;;4.00;99.90;;;;;;4986751;28;36824;-81
2023/11/30 14:15:08;;;;;;;43.13;29.70;;;3.90;99.90;;;;;;5169009;23;20027;-82
2023/11/30 14:17:42;;;;;;;41.43;28.43;;;3.80;99.90;;;;;;4953149;28;48476;-81
2023/11/30 14:28:48;;;;;;;48.57;31.47;;;3.60;99.90;;;;;;5348198;23;20036;-82
2023/11/30 14:36:30;;;;;;;53.20;32.00;;;3.30;99.90;;;;;;6061784;23;20018;-81
2023/11/30 14:49:19;;;;;;;49.97;32.67;;;3.00;99.90;;;;;;5218925;23;20056;-81
2023/11/30 14:54:22;;;;;;;54.93;35.30;;;2.90;99.90;;;;;;5935330;23;20044;-80
2023/11/30 14:56:52;;;;;;;63.60;35.90;;;2.80;99.90;;;;;;4950422;28;38973;-80
2023/11/30 15:02:17;;;;;;;64.93;35.83;;;2.80;99.90;;;;;;4957103;28;20052;-82
2023/11/30 15:33:28;;;;;;;63.20;35.63;;;2.10;99.90;;;;;;5486672;23;20042;-79
2023/11/30 15:35:54;;;;;;;70.17;36.03;;;2.10;99.90;;;;;;4965682;28;37346;-81
2023/11/30 15:38:40;;;;;;;68.97;36.57;;;2.00;99.90;;;;;;4962063;28;39238;-81
2023/11/30 15:41:10;;;;;;;69.33;38.13;;;1.90;99.90;;;;;;4964291;28;40729;-80
2023/11/30 15:43:52;;;;;;;82.90;43.13;;;1.80;99.90;;;;;;4969351;28;37393;-81
2023/11/30 15:54:07;;;;;;;82.07;41.03;;;1.60;99.90;;;;;;5871555;23;20044;-80
2023/11/30 15:56:33;;;;;;;75.00;39.83;;;1.60;99.90;;;;;;4969043;28;38774;-81
2023/11/30 15:59:24;;;;;;;61.33;34.53;;;1.50;99.90;;;;;;4943979;28;38895;-80
2023/11/30 16:01:51;;;;;;;76.00;37.90;;;1.50;99.90;;;;;;5546795;23;48615;-80
2023/11/30 16:09:43;;;;;;;86.10;41.40;;;1.40;99.90;;;;;;5337033;23;20039;-80
2023/11/30 16:12:15;;;;;;;79.53;39.13;;;1.40;99.90;;;;;;4992502;28;38228;-80
2023/11/30 16:14:41;;;;;;;70.35;38.22;;;1.40;99.90;;;;;;5016865;28;39305;-80
2023/11/30 16:17:16;;;;;;;67.17;36.43;;;1.40;99.90;;;;;;4986458;28;38772;-79
2023/11/30 16:24:54;;;;;;;88.37;41.57;;;1.30;99.90;;;;;;4977182;28;20048;-82
2023/11/30 16:27:20;;;;;;;87.43;42.27;;;1.20;99.90;;;;;;4954106;28;37871;-80
2023/11/30 16:29:46;;;;;;;81.30;41.27;;;1.20;99.90;;;;;;4955971;28;37643;-80
2023/11/30 16:32:13;;;;;;;115.73;46.00;;;1.30;99.90;;;;;;5108020;23;38829;-79
2023/11/30 16:34:39;;;;;;;101.63;44.27;;;1.30;99.90;;;;;;4953055;28;37299;-80
2023/11/30 16:37:16;;;;;;;103.90;44.07;;;1.40;99.90;;;;;;4969831;28;38770;-80
2023/11/30 16:39:48;;;;;;;97.10;41.53;;;1.40;99.90;;;;;;4973039;28;39057;-80
2023/11/30 16:44:50;;;;;;;112.83;45.00;;;1.40;99.90;;;;;;5769042;23;20072;-79
2023/11/30 16:47:19;;;;;;;98.73;43.13;;;1.40;99.90;;;;;;5570549;23;37176;-80
2023/11/30 17:08:33;;;;;;;121.53;39.57;;;1.50;99.90;;;;;;5414805;23;20062;-81
2023/11/30 17:11:16;;;;;;;72.00;40.03;;;1.50;99.90;;;;;;4992918;28;50223;-81
2023/11/30 17:13:46;;;;;;;59.93;36.53;;;1.60;99.90;;;;;;4986984;28;50188;-80
2023/11/30 17:16:22;;;;;;;95.83;39.70;;;1.70;99.90;;;;;;4973175;28;39398;-80
2023/11/30 17:18:49;;;;;;;56.90;35.53;;;1.60;99.90;;;;;;4963869;28;37583;-80
2023/11/30 17:23:51;;;;;;;112.90;40.40;;;1.60;99.90;;;;;;4986572;23;20028;-80
2023/11/30 17:26:18;;;;;;;238.37;45.47;;;1.70;99.90;;;;;;4959966;28;39744;-80
2023/11/30 17:28:44;;;;;;;91.27;39.60;;;1.60;99.90;;;;;;4955854;28;38969;-81
2023/11/30 17:31:19;;;;;;;161.37;40.47;;;1.50;99.90;;;;;;4939848;28;37631;-80
2023/11/30 17:34:03;;;;;;;242.00;46.93;;;1.50;99.90;;;;;;4940966;28;37333;-81
2023/11/30 17:36:29;;;;;;;71.80;35.43;;;1.40;99.90;;;;;;4938150;29;47547;-79
2023/11/30 17:39:06;;;;;;;158.93;42.30;;;1.40;99.90;;;;;;4932797;28;36653;-80
2023/11/30 17:41:35;;;;;;;185.20;43.57;;;1.30;99.90;;;;;;4964510;28;50171;-79
2023/11/30 17:44:25;;;;;;;90.50;35.07;;;1.40;99.90;;;;;;4943612;28;38127;-79
2023/11/30 17:47:15;;;;;;;185.63;38.60;;;1.30;99.90;;;;;;4943630;28;48270;-80
2023/11/30 17:49:52;;;;;;;258.70;46.37;;;1.20;99.90;;;;;;4946994;28;49964;-80
2023/11/30 17:52:18;;;;;;;85.20;32.90;;;1.20;99.90;;;;;;4965975;28;38813;-80
2023/11/30 17:54:44;;;;;;;117.20;36.03;;;1.10;99.90;;;;;;4952872;28;39884;-79
2023/11/30 17:57:12;;;;;;;60.27;30.17;;;1.00;99.90;;;;;;4946545;28;37915;-81
2023/11/30 17:59:47;;;;;;;75.83;33.03;;;1.00;99.90;;;;;;5316663;23;37223;-81
2023/11/30 18:07:26;;;;;;;64.13;33.07;;;1.10;99.90;;;;;;5215128;23;20043;-80
2023/11/30 18:10:01;;;;;;;52.20;31.97;;;0.90;99.90;;;;;;5376244;23;36332;-80
2023/11/30 18:17:39;;;;;;;44.60;28.40;;;1.20;99.90;;;;;;5800582;23;20046;-80